Time;durP1;ratioP1;P1;durP2;ratioP2;P2;SDS_P1;SDS_P2;PMS_P1;PMS_P2;Temp;Humidity;BMP_temperature;BMP_pressure;BME280_temperature;BME280_humidity;BME280_pressure;Samples;Min_cycle;Max_cycle;Signal;HPM_P1;HPM_P2
2022/06/12 12:41:51;;;;;;;2.67;1.33;;;;;;;31.15;31.40;99265.75;5150372;27;20062;-84
2022/06/12 12:44:30;;;;;;;6.97;1.60;;;;;;;30.94;33.09;99276.63;5150618;27;20134;-82
2022/06/12 12:46:56;;;;;;;2.78;1.55;;;;;;;31.30;32.73;99275.75;5170715;27;20276;-82
2022/06/12 12:49:26;;;;;;;1.52;1.30;;;;;;;31.57;31.72;99275.63;5139181;27;20061;-81
2022/06/12 12:52:05;;;;;;;3.60;1.48;;;;;;;31.38;32.24;99260.94;5145476;27;20062;-82
2022/06/12 12:54:48;;;;;;;3.33;1.48;;;;;;;31.13;31.83;99277.28;5149881;27;20130;-83
2022/06/12 12:57:17;;;;;;;4.10;1.55;;;;;;;30.89;32.19;99266.34;5129562;27;20047;-82
2022/06/12 12:59:47;;;;;;;3.47;1.60;;;;;;;30.41;33.39;99248.13;5154116;27;20095;-83
2022/06/12 13:02:22;;;;;;;2.97;1.33;;;;;;;30.84;33.33;99260.88;5167920;27;20050;-83
2022/06/12 13:04:50;;;;;;;3.08;1.27;;;;;;;31.10;33.91;99258.28;5146285;27;20057;-81
2022/06/12 13:07:36;;;;;;;4.32;1.55;;;;;;;31.09;33.67;99267.03;5149028;27;20054;-81
2022/06/12 13:10:29;;;;;;;4.00;1.45;;;;;;;30.91;33.82;99244.44;5149443;27;20051;-82
2022/06/12 13:13:22;;;;;;;1.73;1.27;;;;;;;30.33;33.93;99263.66;5144872;27;20054;-82
2022/06/12 13:15:58;;;;;;;5.68;1.58;;;;;;;30.15;34.45;99259.84;5113452;27;20054;-82
2022/06/12 13:18:45;;;;;;;2.88;1.48;;;;;;;29.79;35.53;99259.72;5147971;27;20130;-81
2022/06/12 13:21:20;;;;;;;3.67;1.63;;;;;;;30.06;35.68;99255.31;5148058;27;20081;-82
2022/06/12 13:24:15;;;;;;;2.85;1.40;;;;;;;30.32;35.85;99245.22;5148956;27;20506;-81
2022/06/12 13:26:44;;;;;;;2.88;1.52;;;;;;;30.86;34.06;99242.56;5170108;27;20050;-82
2022/06/12 13:29:14;;;;;;;3.15;1.35;;;;;;;31.01;33.78;99221.75;5169268;27;20425;-81
2022/06/12 13:31:41;;;;;;;8.00;1.50;;;;;;;31.30;33.19;99244.84;5167439;27;20389;-83
2022/06/12 13:34:18;;;;;;;5.90;1.45;;;;;;;31.76;33.45;99244.47;5144419;27;20039;-82
2022/06/12 13:36:45;;;;;;;2.25;1.25;;;;;;;31.63;33.96;99230.53;5141508;27;20047;-80
2022/06/12 13:39:21;;;;;;;2.20;1.30;;;;;;;30.78;35.21;99231.28;5148429;27;20387;-80
2022/06/12 13:41:54;;;;;;;2.08;1.50;;;;;;;31.19;34.50;99221.84;5148810;27;20070;-80
2022/06/12 13:44:24;;;;;;;7.13;1.60;;;;;;;31.21;33.98;99203.53;5145643;27;20174;-80
2022/06/12 13:46:51;;;;;;;2.95;1.60;;;;;;;31.76;32.99;99223.97;5143135;27;20049;-79
2022/06/12 13:49:29;;;;;;;4.18;1.38;;;;;;;31.13;33.20;99215.53;5119956;28;20077;-80
2022/06/12 13:52:00;;;;;;;1.80;1.35;;;;;;;30.67;35.04;99227.91;5115898;27;20419;-79
2022/06/12 13:54:29;;;;;;;2.92;1.27;;;;;;;30.27;36.97;99219.25;5122625;27;20050;-84
2022/06/12 13:57:05;;;;;;;1.60;1.33;;;;;;;30.28;35.09;99212.50;5134624;27;20046;-83
2022/06/12 13:59:34;;;;;;;1.65;1.30;;;;;;;30.24;35.46;99201.06;5134351;27;20051;-83
2022/06/12 14:02:10;;;;;;;3.50;1.50;;;;;;;30.42;35.14;99224.53;5133476;27;20053;-81
2022/06/12 14:04:38;;;;;;;1.83;1.23;;;;;;;29.87;35.50;99210.56;5134500;27;20447;-83
2022/06/12 14:07:06;;;;;;;1.80;1.30;;;;;;;29.90;36.38;99215.56;5134531;27;20134;-85
2022/06/12 14:09:34;;;;;;;2.85;1.50;;;;;;;29.88;36.59;99198.22;5128177;27;20065;-83
2022/06/12 14:12:02;;;;;;;3.88;1.27;;;;;;;30.04;35.55;99210.78;5133052;27;20051;-82
2022/06/12 14:14:35;;;;;;;5.60;1.45;;;;;;;30.10;34.71;99192.69;5133522;27;20043;-81
2022/06/12 14:17:01;;;;;;;4.72;2.30;;;;;;;30.33;34.55;99209.56;5132191;27;20582;-81
2022/06/12 14:19:30;;;;;;;2.42;1.20;;;;;;;29.98;34.38;99204.44;5134125;27;20059;-83
2022/06/12 14:22:02;;;;;;;1.57;1.20;;;;;;;29.73;35.38;99193.75;5133476;27;20043;-81
2022/06/12 14:24:33;;;;;;;3.45;1.40;;;;;;;29.36;35.78;99184.38;5133814;27;20303;-82
2022/06/12 14:26:59;;;;;;;2.42;1.45;;;;;;;29.25;36.16;99187.41;5126743;27;20135;-83
2022/06/12 14:29:42;;;;;;;4.32;1.80;;;;;;;29.74;37.23;99195.41;5126965;27;20047;-82
2022/06/12 14:32:22;;;;;;;1.80;1.33;;;;;;;30.19;36.80;99188.00;5131186;27;20047;-82
2022/06/12 14:35:18;;;;;;;3.10;1.52;;;;;;;30.49;35.21;99151.19;5133748;27;20081;-83
2022/06/12 14:37:45;;;;;;;5.13;1.60;;;;;;;30.85;35.36;99172.75;5128484;27;20047;-83
2022/06/12 14:40:30;;;;;;;1.50;1.20;;;;;;;31.42;33.93;99175.72;5133501;27;20047;-83
2022/06/12 14:43:05;;;;;;;3.10;1.38;;;;;;;31.48;32.78;99159.56;5131363;27;20050;-83
2022/06/12 14:45:34;;;;;;;3.60;1.70;;;;;;;31.72;33.11;99161.13;5127946;27;20066;-83
2022/06/12 14:48:01;;;;;;;3.30;1.30;;;;;;;32.05;31.11;99174.75;5133050;27;20054;-83
2022/06/12 14:50:27;;;;;;;2.60;1.45;;;;;;;31.80;31.51;99174.41;5132605;27;20069;-83
2022/06/12 14:52:55;;;;;;;2.47;1.23;;;;;;;32.22;32.53;99169.22;5132941;27;20051;-83
2022/06/12 14:55:21;;;;;;;7.20;3.53;;;;;;;32.27;32.22;99160.59;5132719;27;20055;-83
2022/06/12 14:57:48;;;;;;;3.30;1.13;;;;;;;31.70;32.32;99158.66;5126474;27;20047;-82
2022/06/12 15:00:20;;;;;;;4.22;1.70;;;;;;;31.67;32.08;99164.91;5122130;27;20051;-82
2022/06/12 15:02:48;;;;;;;6.82;1.50;;;;;;;31.02;34.25;99138.34;5128700;27;20047;-82
2022/06/12 15:05:23;;;;;;;2.72;1.30;;;;;;;30.78;34.09;99158.31;5132803;27;20061;-83
2022/06/12 15:07:49;;;;;;;4.82;1.30;;;;;;;30.22;34.55;99143.69;5118011;27;20083;-82
2022/06/12 15:10:16;;;;;;;5.78;1.27;;;;;;;29.94;34.79;99155.75;5112393;28;20062;-81
2022/06/12 15:12:44;;;;;;;2.15;1.20;;;;;;;29.85;35.15;99140.84;5117973;27;20043;-81
2022/06/12 15:15:17;;;;;;;3.45;1.30;;;;;;;29.85;35.94;99140.03;5132786;27;20158;-81
2022/06/12 15:17:44;;;;;;;3.72;1.30;;;;;;;29.62;35.83;99137.09;5112851;27;20058;-80
2022/06/12 15:20:13;;;;;;;2.65;1.40;;;;;;;29.52;36.64;99152.13;5123869;27;20054;-81
2022/06/12 15:22:40;;;;;;;3.67;1.70;;;;;;;29.55;36.96;99131.91;5111064;28;20043;-82
2022/06/12 15:25:12;;;;;;;5.38;1.55;;;;;;;29.47;36.89;99141.88;5110186;28;20043;-81
2022/06/12 15:30:22;;;;;;;3.10;1.40;;;;;;;30.10;35.34;99130.22;5110732;28;20062;-82
2022/06/12 15:32:51;;;;;;;2.97;1.77;;;;;;;30.89;35.22;99128.84;5110484;28;20063;-82
2022/06/12 15:35:19;;;;;;;4.70;1.40;;;;;;;30.97;34.84;99118.81;5114467;27;20047;-82
2022/06/12 15:37:49;;;;;;;3.42;1.60;;;;;;;31.16;33.80;99122.22;5126500;27;20410;-82
2022/06/12 15:40:16;;;;;;;3.33;1.48;;;;;;;31.30;33.17;99115.69;5132161;27;20465;-81
2022/06/12 15:42:42;;;;;;;5.55;1.55;;;;;;;31.53;32.37;99122.06;5126077;27;20048;-81
2022/06/12 15:45:16;;;;;;;3.63;1.45;;;;;;;31.03;32.39;99098.75;5129373;27;20047;-82
2022/06/12 15:47:42;;;;;;;1.92;1.20;;;;;;;31.22;31.56;99118.16;5121181;27;20039;-82
2022/06/12 15:50:10;;;;;;;2.78;1.58;;;;;;;30.97;31.89;99111.22;5130080;27;20047;-82
2022/06/12 15:52:38;;;;;;;2.92;1.38;;;;;;;31.28;31.94;99098.34;5128857;27;20039;-82
2022/06/12 15:55:05;;;;;;;9.20;1.80;;;;;;;31.17;32.14;99097.81;5129835;27;20051;-81
2022/06/12 15:57:33;;;;;;;2.60;1.30;;;;;;;31.37;31.33;99108.44;5130171;27;20762;-81
2022/06/12 16:00:00;;;;;;;5.55;1.60;;;;;;;31.34;31.70;99095.06;5131340;27;20444;-81
2022/06/12 16:02:27;;;;;;;1.35;1.15;;;;;;;31.37;30.84;99119.69;5131256;27;20055;-82
2022/06/12 16:04:55;;;;;;;4.63;1.40;;;;;;;31.40;30.48;99107.78;5131596;27;20482;-81
2022/06/12 16:07:23;;;;;;;3.97;1.38;;;;;;;31.28;30.06;99101.16;5130437;27;20383;-82
2022/06/12 16:09:51;;;;;;;3.10;1.50;;;;;;;31.62;29.66;99097.66;5125848;27;20457;-82
2022/06/12 16:12:19;;;;;;;3.13;1.42;;;;;;;31.16;31.27;99094.16;5121767;27;20166;-82
2022/06/12 16:14:45;;;;;;;1.60;1.35;;;;;;;30.82;32.33;99083.59;5132254;27;20058;-80
2022/06/12 16:17:12;;;;;;;3.05;1.20;;;;;;;30.56;31.91;99077.81;5131963;27;20050;-83
2022/06/12 16:19:39;;;;;;;4.70;1.23;;;;;;;30.56;33.14;99084.22;5131960;27;20049;-79
2022/06/12 16:22:05;;;;;;;2.83;1.20;;;;;;;30.75;32.40;99084.03;5131241;27;20446;-80
2022/06/12 16:24:32;;;;;;;5.72;1.25;;;;;;;31.09;31.83;99084.53;5132224;27;20043;-79
2022/06/12 16:27:00;;;;;;;5.72;1.73;;;;;;;31.26;32.88;99070.59;5128159;27;20051;-80
2022/06/12 16:29:28;;;;;;;4.10;1.50;;;;;;;31.35;31.56;99070.63;5129309;27;20046;-80
2022/06/12 16:31:55;;;;;;;1.30;1.20;;;;;;;31.32;29.51;99068.47;5111192;28;20091;-80
2022/06/12 16:34:22;;;;;;;0.75;0.75;;;;;;;31.23;28.31;99072.06;5124517;27;20050;-80
2022/06/12 16:36:49;;;;;;;3.55;1.15;;;;;;;31.19;28.53;99056.19;5131765;28;20051;-81
2022/06/12 16:39:15;;;;;;;2.15;1.50;;;;;;;30.99;29.37;99064.03;5131661;28;20054;-80
2022/06/12 16:41:49;;;;;;;4.18;1.40;;;;;;;31.03;29.94;99061.44;5130260;28;20098;-81
2022/06/12 16:44:19;;;;;;;4.82;1.20;;;;;;;30.97;30.24;99052.28;5118088;28;21837;-80
2022/06/12 16:46:47;;;;;;;0.77;0.77;;;;;;;30.87;30.20;99039.34;5131006;28;20055;-81
2022/06/12 16:49:15;;;;;;;1.92;0.98;;;;;;;30.77;29.58;99050.84;5109698;28;20044;-80
2022/06/12 16:51:52;;;;;;;2.53;1.20;;;;;;;30.86;30.02;99056.50;5109985;28;20048;-81
2022/06/12 16:54:20;;;;;;;3.35;1.30;;;;;;;30.48;30.16;99034.53;5108678;28;20040;-80
2022/06/12 16:56:46;;;;;;;4.72;1.13;;;;;;;30.50;31.04;99055.50;5117103;28;20054;-80
2022/06/12 16:59:13;;;;;;;1.13;1.02;;;;;;;30.17;31.33;99038.94;5130715;28;20044;-82
2022/06/12 17:01:42;;;;;;;5.75;1.38;;;;;;;30.44;33.73;99039.97;5130872;28;20065;-82
2022/06/12 17:04:09;;;;;;;4.28;1.70;;;;;;;30.45;31.98;99026.75;5129645;28;20062;-82
2022/06/12 17:06:37;;;;;;;1.17;1.05;;;;;;;30.18;32.42;99043.38;5109790;28;20407;-81
2022/06/12 17:09:05;;;;;;;1.77;1.20;;;;;;;30.11;32.39;99057.03;5127440;27;20047;-80
2022/06/12 17:11:32;;;;;;;3.60;1.10;;;;;;;29.88;32.43;99050.53;5128030;28;20666;-81
2022/06/12 17:13:58;;;;;;;1.73;1.10;;;;;;;29.39;33.74;99049.41;5127440;27;20058;-80
2022/06/12 17:16:25;;;;;;;3.38;1.10;;;;;;;29.01;35.71;99056.00;5129456;28;20055;-81
2022/06/12 17:21:38;;;;;;;2.83;1.30;;;;;;;28.69;36.89;99034.53;5131088;28;20054;-80
2022/06/12 17:24:05;;;;;;;2.58;1.55;;;;;;;28.39;37.22;99048.72;5131008;27;20133;-80
2022/06/12 17:26:34;;;;;;;6.55;1.65;;;;;;;28.58;37.38;99048.66;5135281;27;20047;-81
2022/06/12 17:29:00;;;;;;;2.88;1.20;;;;;;;28.42;37.81;99050.06;5135296;27;20040;-81
2022/06/12 17:31:27;;;;;;;4.35;1.40;;;;;;;28.37;38.60;99056.56;5134637;27;20125;-80
2022/06/12 17:33:55;;;;;;;2.83;1.73;;;;;;;28.20;38.57;99042.34;5118357;27;20040;-80
2022/06/12 17:36:21;;;;;;;6.35;1.60;;;;;;;28.22;40.22;99054.03;5131151;27;20051;-80
2022/06/12 17:38:48;;;;;;;8.70;2.10;;;;;;;28.11;40.25;99050.59;5125119;27;20043;-80
2022/06/12 17:41:15;;;;;;;4.15;1.60;;;;;;;28.24;39.89;99057.34;5128316;27;20235;-81
2022/06/12 17:43:42;;;;;;;3.40;1.35;;;;;;;28.21;40.49;99053.22;5133721;27;20054;-80
2022/06/12 17:46:09;;;;;;;2.15;1.20;;;;;;;28.07;42.47;99053.16;5114286;27;20818;-80
2022/06/12 17:48:36;;;;;;;4.22;1.55;;;;;;;28.04;42.62;99048.16;5118880;27;20043;-80
2022/06/12 17:51:04;;;;;;;2.40;1.20;;;;;;;27.66;42.47;99038.97;5134385;27;20050;-80
2022/06/12 17:53:31;;;;;;;4.38;1.38;;;;;;;27.69;43.85;99049.53;5133886;27;20070;-79
2022/06/12 17:55:58;;;;;;;3.00;1.45;;;;;;;27.53;44.67;99058.09;5133339;27;20055;-81
2022/06/12 17:58:24;;;;;;;1.90;1.50;;;;;;;27.30;44.77;99050.56;5134350;27;20055;-79
2022/06/12 18:00:51;;;;;;;5.78;1.25;;;;;;;27.22;43.79;99059.59;5134224;27;20047;-79
2022/06/12 18:03:18;;;;;;;6.00;1.63;;;;;;;27.25;43.96;99059.84;5133554;27;20055;-82
2022/06/12 18:05:46;;;;;;;3.17;1.55;;;;;;;27.08;43.92;99043.56;5130748;27;20047;-81
2022/06/12 18:08:17;;;;;;;2.75;1.42;;;;;;;26.96;44.45;99059.91;5125279;27;20097;-81
2022/06/12 18:10:44;;;;;;;2.75;1.70;;;;;;;27.08;44.66;99057.50;5113605;28;20051;-81
2022/06/12 18:13:11;;;;;;;3.53;1.75;;;;;;;26.84;48.10;99041.63;5119885;27;20062;-81
2022/06/12 18:21:05;;;;;;;2.08;1.40;;;;;;;26.74;49.54;99057.63;5133805;27;20058;-80
2022/06/12 18:23:33;;;;;;;4.45;1.90;;;;;;;26.70;51.11;99060.16;5131492;27;20055;-80
2022/06/12 18:26:00;;;;;;;2.85;1.30;;;;;;;26.62;51.65;99058.81;5125337;27;20054;-80
2022/06/12 18:28:27;;;;;;;3.22;1.40;;;;;;;26.58;51.07;99057.75;5134128;27;20047;-80
2022/06/12 18:30:55;;;;;;;2.25;1.65;;;;;;;26.63;53.73;99063.28;5125188;27;20134;-82
2022/06/12 18:33:23;;;;;;;6.28;1.90;;;;;;;26.41;55.17;99049.00;5133009;27;20069;-80
2022/06/12 18:35:52;;;;;;;3.80;1.85;;;;;;;26.51;57.25;99054.47;5133659;27;20051;-81
2022/06/12 18:38:19;;;;;;;1.50;1.20;;;;;;;26.33;58.96;99056.00;5133099;27;20051;-80
2022/06/12 18:40:47;;;;;;;5.10;1.80;;;;;;;25.99;59.29;99029.00;5133383;27;20043;-81
2022/06/12 18:43:14;;;;;;;12.07;6.65;;;;;;;26.02;58.90;99058.25;5129516;27;20755;-80
2022/06/12 18:45:41;;;;;;;4.63;2.40;;;;;;;25.77;60.92;99062.81;5112928;28;20052;-81
2022/06/12 18:48:09;;;;;;;3.92;1.80;;;;;;;25.56;60.44;99053.75;5114430;27;20051;-80
2022/06/12 18:50:35;;;;;;;3.10;1.67;;;;;;;25.18;59.85;99040.25;5122435;27;20043;-80
2022/06/12 18:53:02;;;;;;;2.85;1.38;;;;;;;25.33;57.82;99061.66;5132820;27;20051;-81
2022/06/12 18:55:28;;;;;;;4.28;2.10;;;;;;;25.42;59.95;99065.50;5131725;27;20054;-80
2022/06/12 18:57:56;;;;;;;1.67;1.40;;;;;;;25.11;62.33;99066.72;5133158;27;20059;-80
2022/06/12 19:00:25;;;;;;;5.18;1.65;;;;;;;24.84;63.21;99056.78;5133530;27;20043;-80
2022/06/12 19:02:52;;;;;;;3.42;1.88;;;;;;;24.73;63.55;99050.41;5129509;27;20043;-80
2022/06/12 19:05:19;;;;;;;2.33;1.80;;;;;;;24.74;60.58;99054.88;5112717;27;20062;-80
2022/06/12 19:07:46;;;;;;;2.88;2.00;;;;;;;24.66;60.69;99053.50;5115744;27;20430;-80
2022/06/12 19:10:13;;;;;;;4.72;2.05;;;;;;;24.58;61.02;99053.19;5127037;27;20055;-81
2022/06/12 19:12:40;;;;;;;2.85;1.55;;;;;;;24.53;59.96;99065.16;5130733;27;20046;-80
2022/06/12 19:15:09;;;;;;;4.45;3.42;;;;;;;24.45;61.52;99061.00;5133310;27;20047;-80
2022/06/12 19:17:36;;;;;;;1.88;1.60;;;;;;;24.39;62.42;99062.13;5133151;27;20054;-78
2022/06/12 19:20:03;;;;;;;3.10;1.65;;;;;;;24.30;60.33;99063.75;5132995;27;20402;-78
2022/06/12 19:22:31;;;;;;;2.67;1.50;;;;;;;24.20;61.46;99059.88;5130821;27;20043;-80
2022/06/12 19:24:58;;;;;;;3.08;1.42;;;;;;;24.27;59.90;99065.16;5127134;27;20051;-80
2022/06/12 19:27:25;;;;;;;3.83;1.60;;;;;;;24.20;61.18;99064.59;5133260;27;20051;-79
2022/06/12 19:29:53;;;;;;;2.70;1.70;;;;;;;24.07;60.71;99056.81;5132954;27;20051;-80
2022/06/12 19:32:23;;;;;;;4.07;1.40;;;;;;;24.07;59.64;99059.59;5132308;27;20426;-80
2022/06/12 19:34:49;;;;;;;6.53;2.30;;;;;;;24.14;60.43;99065.72;5132675;27;20055;-80
2022/06/12 19:37:16;;;;;;;3.50;2.20;;;;;;;24.22;60.58;99065.16;5114829;27;20106;-79
2022/06/12 19:39:42;;;;;;;3.78;1.90;;;;;;;24.00;65.52;99059.88;5113174;27;20051;-80
2022/06/12 19:42:09;;;;;;;3.35;2.00;;;;;;;24.03;64.63;99074.03;5111464;28;20044;-80
2022/06/12 19:44:38;;;;;;;2.92;1.70;;;;;;;23.84;65.72;99061.75;5109426;28;20048;-80
2022/06/12 19:47:07;;;;;;;3.03;1.40;;;;;;;23.66;66.12;99080.59;5109797;28;20574;-80
2022/06/12 19:49:35;;;;;;;;;;;;;;;23.53;64.11;99083.91;5110021;28;20507;-80
2022/06/12 19:52:03;;;;;;;3.00;1.80;;;;;;;23.42;63.53;99071.91;5119140;27;20222;-80
2022/06/12 19:54:29;;;;;;;1.95;1.45;;;;;;;23.48;63.88;99070.81;5130296;27;20062;-80
2022/06/12 19:56:56;;;;;;;2.47;1.92;;;;;;;23.67;63.79;99086.97;5118922;27;20398;-80
2022/06/12 19:59:23;;;;;;;3.58;2.33;;;;;;;23.42;66.04;99060.00;5128559;27;20409;-79
2022/06/12 20:01:51;;;;;;;17.13;10.77;;;;;;;23.56;66.50;99079.72;5129022;27;20051;-80
2022/06/12 20:09:49;;;;;;;6.32;3.28;;;;;;;23.00;70.44;99070.03;5128787;27;20054;-80
2022/06/12 20:12:16;;;;;;;3.05;2.22;;;;;;;22.96;70.78;99082.78;5129280;27;20057;-80
2022/06/12 20:14:44;;;;;;;4.38;2.75;;;;;;;22.94;68.75;99082.19;5129524;27;20043;-80
2022/06/12 20:17:10;;;;;;;5.72;2.22;;;;;;;23.03;68.65;99082.53;5127617;27;20047;-80
2022/06/12 20:19:37;;;;;;;4.00;2.10;;;;;;;22.96;68.74;99068.91;5125181;27;20054;-80
2022/06/12 20:22:05;;;;;;;3.70;2.10;;;;;;;23.07;68.57;99075.34;5124756;27;20058;-79
2022/06/12 20:24:32;;;;;;;6.32;2.38;;;;;;;22.97;68.95;99059.47;5113833;27;20040;-79
2022/06/12 20:26:59;;;;;;;6.72;2.95;;;;;;;22.90;70.71;99064.41;5120491;27;20073;-81
2022/06/12 20:29:25;;;;;;;12.57;3.97;;;;;;;22.78;70.15;99056.34;5126507;27;20395;-80
2022/06/12 20:31:52;;;;;;;5.63;4.35;;;;;;;22.64;71.04;99064.25;5120149;27;20082;-81
2022/06/12 20:34:19;;;;;;;6.82;3.92;;;;;;;22.70;70.98;99070.69;5125124;27;20043;-79
2022/06/12 20:36:46;;;;;;;5.68;3.22;;;;;;;22.64;71.87;99069.81;5114124;27;20050;-80
2022/06/12 20:39:16;;;;;;;7.45;4.72;;;;;;;22.64;72.08;99064.25;5125800;28;20126;-81
2022/06/12 20:41:44;;;;;;;10.80;5.80;;;;;;;22.64;72.71;99078.13;5121902;28;20047;-81
2022/06/12 20:44:11;;;;;;;10.95;5.63;;;;;;;22.63;74.40;99088.38;5120197;27;20051;-80
2022/06/12 20:46:38;;;;;;;7.65;4.22;;;;;;;22.42;74.62;99076.31;5124608;28;20513;-79
2022/06/12 20:49:07;;;;;;;9.65;3.92;;;;;;;22.47;74.60;99077.47;5122191;28;20041;-81
2022/06/12 20:51:34;;;;;;;9.43;4.82;;;;;;;22.32;75.84;99058.78;5125616;27;20114;-81
2022/06/12 20:54:10;;;;;;;7.43;4.00;;;;;;;22.07;76.28;99046.34;5121229;28;20079;-80
2022/06/12 20:56:39;;;;;;;6.65;3.42;;;;;;;22.07;77.54;99069.34;5127617;28;20039;-80
2022/06/12 20:59:06;;;;;;;6.75;4.30;;;;;;;21.88;78.42;99052.28;5124532;27;20043;-81
2022/06/12 21:01:37;;;;;;;7.38;4.03;;;;;;;21.81;78.82;99072.97;5127917;27;20043;-81
2022/06/12 21:04:04;;;;;;;6.72;3.25;;;;;;;21.77;78.33;99067.13;5127857;27;20039;-80
2022/06/12 21:06:31;;;;;;;6.38;2.90;;;;;;;21.73;78.12;99060.44;5130250;27;20043;-80
2022/06/12 21:09:00;;;;;;;5.13;2.22;;;;;;;21.65;78.39;99069.19;5123430;27;20051;-81
2022/06/12 21:15:13;;;;;;;3.03;2.30;;;;;;;21.68;78.55;99068.66;5110963;27;20173;-81
